sensor_id;sensor_type;location;lat;lon;timestamp;P1;durP1;ratioP1;P2;durP2;ratioP2
24631;SDS011;59977;48.782;9.190;2022-12-29T19:28:55;6.55;;;1.90;;
24631;SDS011;59977;48.782;9.190;2022-12-29T19:31:26;5.10;;;1.55;;
24631;SDS011;59977;48.782;9.190;2022-12-29T19:47:02;3.08;;;1.38;;
24631;SDS011;59977;48.782;9.190;2022-12-29T19:49:28;4.25;;;1.20;;
24631;SDS011;59977;48.782;9.190;2022-12-29T19:51:54;4.22;;;1.30;;
24631;SDS011;59977;48.782;9.190;2022-12-29T19:54:19;4.57;;;1.38;;
24631;SDS011;59977;48.782;9.190;2022-12-29T19:56:45;4.50;;;1.60;;
24631;SDS011;59977;48.782;9.190;2022-12-29T19:59:21;7.05;;;3.22;;
24631;SDS011;59977;48.782;9.190;2022-12-29T20:41:32;5.90;;;2.15;;
24631;SDS011;59977;48.782;9.190;2022-12-29T20:44:38;5.82;;;2.40;;
24631;SDS011;59977;48.782;9.190;2022-12-29T20:57:07;3.83;;;1.17;;
24631;SDS011;59977;48.782;9.190;2022-12-29T21:03:08;4.40;;;1.23;;
24631;SDS011;59977;48.782;9.190;2022-12-29T21:05:35;11.10;;;1.00;;
24631;SDS011;59977;48.782;9.190;2022-12-29T21:08:02;9.25;;;2.42;;
24631;SDS011;59977;48.782;9.190;2022-12-29T21:10:29;16.65;;;6.50;;
24631;SDS011;59977;48.782;9.190;2022-12-29T21:12:54;6.32;;;3.30;;
24631;SDS011;59977;48.782;9.190;2022-12-29T21:15:20;5.07;;;2.35;;
24631;SDS011;59977;48.782;9.190;2022-12-29T21:17:45;7.15;;;1.67;;
24631;SDS011;59977;48.782;9.190;2022-12-29T21:20:12;4.75;;;1.40;;
24631;SDS011;59977;48.782;9.190;2022-12-29T21:22:44;4.13;;;1.42;;
24631;SDS011;59977;48.782;9.190;2022-12-29T21:25:10;3.17;;;1.40;;
24631;SDS011;59977;48.782;9.190;2022-12-29T21:27:36;3.22;;;1.20;;
24631;SDS011;59977;48.782;9.190;2022-12-29T21:30:02;5.75;;;1.30;;
24631;SDS011;59977;48.782;9.190;2022-12-29T21:32:28;3.88;;;1.40;;
24631;SDS011;59977;48.782;9.190;2022-12-29T21:34:53;4.70;;;1.48;;
24631;SDS011;59977;48.782;9.190;2022-12-29T21:37:19;3.03;;;1.27;;
24631;SDS011;59977;48.782;9.190;2022-12-29T21:39:45;1.73;;;1.00;;
24631;SDS011;59977;48.782;9.190;2022-12-29T21:42:10;3.28;;;1.15;;
24631;SDS011;59977;48.782;9.190;2022-12-29T21:44:36;3.42;;;1.20;;
24631;SDS011;59977;48.782;9.190;2022-12-29T21:47:20;5.47;;;2.88;;
24631;SDS011;59977;48.782;9.190;2022-12-29T21:49:46;8.35;;;2.17;;
24631;SDS011;59977;48.782;9.190;2022-12-29T21:52:11;4.07;;;1.50;;
24631;SDS011;59977;48.782;9.190;2022-12-29T21:54:39;2.47;;;0.95;;
24631;SDS011;59977;48.782;9.190;2022-12-29T21:57:23;3.58;;;0.90;;
24631;SDS011;59977;48.782;9.190;2022-12-29T22:00:08;2.60;;;0.80;;
24631;SDS011;59977;48.782;9.190;2022-12-29T22:02:53;3.05;;;0.93;;
24631;SDS011;59977;48.782;9.190;2022-12-29T22:05:41;2.03;;;1.00;;
24631;SDS011;59977;48.782;9.190;2022-12-29T22:08:26;2.35;;;0.80;;
24631;SDS011;59977;48.782;9.190;2022-12-29T22:17:24;2.25;;;1.00;;
24631;SDS011;59977;48.782;9.190;2022-12-29T22:19:50;0.85;;;0.55;;
24631;SDS011;59977;48.782;9.190;2022-12-29T22:22:16;4.07;;;0.80;;
24631;SDS011;59977;48.782;9.190;2022-12-29T22:29:46;2.20;;;0.47;;
24631;SDS011;59977;48.782;9.190;2022-12-29T22:32:13;3.80;;;0.70;;
24631;SDS011;59977;48.782;9.190;2022-12-29T22:34:40;1.77;;;0.68;;
24631;SDS011;59977;48.782;9.190;2022-12-29T22:37:05;1.08;;;0.50;;
24631;SDS011;59977;48.782;9.190;2022-12-29T22:39:31;1.33;;;0.60;;
24631;SDS011;59977;48.782;9.190;2022-12-29T22:41:57;0.75;;;0.60;;
24631;SDS011;59977;48.782;9.190;2022-12-29T22:44:22;1.40;;;0.88;;
24631;SDS011;59977;48.782;9.190;2022-12-29T22:46:48;2.58;;;0.90;;
24631;SDS011;59977;48.782;9.190;2022-12-29T22:49:13;1.35;;;0.60;;
24631;SDS011;59977;48.782;9.190;2022-12-29T22:51:39;1.10;;;0.60;;
24631;SDS011;59977;48.782;9.190;2022-12-29T22:54:05;2.72;;;0.75;;
24631;SDS011;59977;48.782;9.190;2022-12-29T22:56:31;3.17;;;1.20;;
24631;SDS011;59977;48.782;9.190;2022-12-29T22:58:56;1.25;;;0.57;;
24631;SDS011;59977;48.782;9.190;2022-12-29T23:01:22;1.50;;;0.80;;
24631;SDS011;59977;48.782;9.190;2022-12-29T23:03:48;1.17;;;0.60;;
24631;SDS011;59977;48.782;9.190;2022-12-29T23:06:15;1.42;;;0.60;;
24631;SDS011;59977;48.782;9.190;2022-12-29T23:08:41;1.58;;;0.57;;
24631;SDS011;59977;48.782;9.190;2022-12-29T23:11:08;2.63;;;0.57;;
24631;SDS011;59977;48.782;9.190;2022-12-29T23:13:36;0.73;;;0.65;;
24631;SDS011;59977;48.782;9.190;2022-12-29T23:30:59;0.85;;;0.63;;
24631;SDS011;59977;48.782;9.190;2022-12-29T23:33:40;3.38;;;0.65;;
24631;SDS011;59977;48.782;9.190;2022-12-29T23:36:08;1.45;;;0.80;;
24631;SDS011;59977;48.782;9.190;2022-12-29T23:38:34;1.75;;;0.80;;
24631;SDS011;59977;48.782;9.190;2022-12-29T23:41:00;3.40;;;0.80;;
24631;SDS011;59977;48.782;9.190;2022-12-29T23:43:35;1.33;;;0.90;;
24631;SDS011;59977;48.782;9.190;2022-12-29T23:49:33;2.10;;;0.87;;
24631;SDS011;59977;48.782;9.190;2022-12-29T23:51:58;2.25;;;1.05;;
